Terminal Aerodrome Forecast
Issued by NWS Grand Forks, ND

Home | Current Version | Previous Version | Graphics & Text | Print | Product List | Glossary On
Versions: 1 2 3 4 5 6 7 8 9 10 11 12 13 14
928
FTUS43 KFGF 242327
TAFFAR
TAF
KFAR 242327Z 2500/2524 19014KT P6SM FEW080 SCT200
     FM250100 19013KT P6SM VCTS FEW070CB SCT250
     FM250500 20009KT P6SM FEW060 SCT250
     FM251100 23007KT P6SM FEW250
     FM251600 26010KT P6SM FEW250=

USA.gov is the U.S. government's official web portal to all federal, state and local government web resources and services.